createdAt,value
2022-11-06T00:00:20.231Z,9.65
2022-11-06T00:02:47.988Z,9.76
2022-11-06T00:05:34.224Z,9.84
2022-11-06T00:08:01.967Z,9.82
2022-11-06T00:10:33.702Z,9.82
2022-11-06T00:13:10.742Z,9.83
2022-11-06T00:15:43.756Z,9.79
2022-11-06T00:18:26.869Z,9.82
2022-11-06T00:21:10.865Z,9.82
2022-11-06T00:24:04.680Z,9.81
2022-11-06T00:26:48.685Z,9.78
2022-11-06T00:29:43.536Z,9.81
2022-11-06T00:32:20.957Z,9.75
2022-11-06T00:35:21.257Z,9.78
2022-11-06T00:37:54.746Z,9.87
2022-11-06T00:40:22.609Z,9.82
2022-11-06T00:42:56.713Z,9.84
2022-11-06T00:45:25.380Z,9.79
2022-11-06T00:47:53.448Z,9.73
2022-11-06T00:50:21.183Z,9.65
2022-11-06T00:52:48.813Z,9.64
2022-11-06T00:55:17.725Z,9.63
2022-11-06T00:57:45.368Z,9.54
2022-11-06T01:00:17.918Z,9.48
2022-11-06T01:02:46.234Z,9.50
2022-11-06T01:05:15.022Z,9.53
2022-11-06T01:07:42.853Z,9.56
2022-11-06T01:10:10.888Z,9.43
2022-11-06T01:12:38.532Z,9.50
2022-11-06T01:15:07.448Z,9.54
2022-11-06T01:17:36.966Z,9.58
2022-11-06T01:20:05.552Z,9.62
2022-11-06T01:22:33.327Z,9.63
2022-11-06T01:25:01.074Z,9.57
2022-11-06T01:27:28.802Z,9.61
2022-11-06T01:29:56.836Z,9.57
2022-11-06T01:32:24.622Z,9.58
2022-11-06T01:34:53.611Z,9.57
2022-11-06T01:37:21.343Z,9.61
2022-11-06T01:39:50.381Z,9.64
2022-11-06T01:42:20.992Z,9.62
2022-11-06T01:45:22.552Z,9.60
2022-11-06T01:47:50.603Z,9.56
2022-11-06T01:50:20.614Z,9.55
2022-11-06T01:52:50.345Z,9.54
2022-11-06T01:55:23.406Z,9.44
2022-11-06T01:57:51.418Z,9.48
2022-11-06T02:00:22.109Z,9.50
2022-11-06T02:02:51.241Z,9.52
2022-11-06T02:05:20.870Z,9.50
2022-11-06T02:07:49.527Z,9.52
2022-11-06T02:10:17.606Z,9.59
2022-11-06T02:12:59.592Z,9.62
2022-11-06T02:15:36.635Z,9.61
2022-11-06T02:18:29.433Z,9.66
2022-11-06T02:21:21.448Z,9.61
2022-11-06T02:24:08.311Z,9.67
2022-11-06T02:26:57.919Z,9.61
2022-11-06T02:29:32.627Z,9.54
2022-11-06T02:32:05.196Z,9.50
2022-11-06T02:34:35.000Z,9.48
2022-11-06T02:37:06.295Z,9.52
2022-11-06T02:39:37.744Z,9.52
2022-11-06T02:42:10.111Z,9.43
2022-11-06T02:44:40.310Z,9.41
2022-11-06T02:47:11.395Z,9.44
2022-11-06T02:49:42.865Z,9.41
2022-11-06T02:52:15.360Z,9.50
2022-11-06T02:54:48.191Z,9.39
2022-11-06T02:57:20.527Z,9.32
2022-11-06T02:59:52.896Z,9.35
2022-11-06T03:02:25.847Z,9.32
2022-11-06T03:04:59.281Z,9.36
2022-11-06T03:07:32.291Z,9.36
2022-11-06T03:10:00.118Z,9.29
2022-11-06T03:12:33.212Z,9.31
2022-11-06T03:15:07.438Z,9.36
2022-11-06T03:17:42.772Z,9.23
2022-11-06T03:20:21.627Z,9.25
2022-11-06T03:22:55.552Z,9.24
2022-11-06T03:25:27.969Z,9.11
2022-11-06T03:28:04.172Z,9.17
2022-11-06T03:30:35.859Z,9.22
2022-11-06T03:33:11.504Z,9.26
2022-11-06T03:35:44.651Z,9.24
2022-11-06T03:38:16.978Z,9.28
2022-11-06T03:40:48.500Z,9.27
2022-11-06T03:43:20.373Z,9.31
2022-11-06T03:45:52.068Z,9.21
2022-11-06T03:48:24.529Z,9.20
2022-11-06T03:50:58.311Z,9.20
2022-11-06T03:53:31.344Z,9.20
2022-11-06T03:56:03.224Z,9.23
2022-11-06T03:58:38.619Z,9.22
2022-11-06T04:01:09.534Z,9.21
2022-11-06T04:03:43.040Z,9.22
2022-11-06T04:06:14.963Z,9.17
2022-11-06T04:09:00.655Z,9.10
2022-11-06T04:11:51.802Z,9.11
2022-11-06T04:14:24.116Z,9.03
2022-11-06T04:16:57.434Z,8.89
2022-11-06T04:19:25.414Z,8.91
2022-11-06T04:22:19.225Z,8.89
2022-11-06T04:25:15.942Z,8.93
2022-11-06T04:27:59.855Z,8.77
2022-11-06T04:30:32.940Z,8.78
2022-11-06T04:33:11.288Z,8.79
2022-11-06T04:35:50.878Z,8.72
2022-11-06T04:38:27.315Z,8.75
2022-11-06T04:41:06.354Z,8.70
2022-11-06T04:43:42.637Z,8.71
2022-11-06T04:46:18.495Z,8.63
2022-11-06T04:48:48.073Z,8.64
2022-11-06T04:51:19.342Z,8.70
2022-11-06T04:53:50.949Z,8.69
2022-11-06T04:56:25.800Z,8.78
2022-11-06T04:58:53.726Z,8.75
2022-11-06T05:01:23.100Z,8.73
2022-11-06T05:03:50.864Z,8.70
2022-11-06T05:06:18.616Z,8.75
2022-11-06T05:08:46.592Z,8.75
2022-11-06T05:11:14.743Z,8.78
2022-11-06T05:13:42.448Z,8.76
2022-11-06T05:16:10.145Z,8.86
2022-11-06T05:18:39.153Z,8.82
2022-11-06T05:21:24.554Z,8.88
2022-11-06T05:23:52.304Z,8.86
2022-11-06T05:26:20.021Z,8.81
2022-11-06T05:28:47.792Z,8.81
2022-11-06T05:31:15.449Z,8.90
2022-11-06T05:33:46.864Z,8.89
2022-11-06T05:36:18.831Z,8.86
2022-11-06T05:38:46.824Z,8.83
2022-11-06T05:41:14.606Z,8.84
2022-11-06T05:43:42.557Z,8.91
2022-11-06T05:46:29.556Z,8.92
2022-11-06T05:48:59.641Z,8.86
2022-11-06T05:51:27.325Z,8.82
2022-11-06T05:53:56.406Z,8.71
2022-11-06T05:56:24.190Z,8.82
2022-11-06T05:58:51.890Z,8.72
2022-11-06T06:01:19.634Z,8.75
2022-11-06T06:03:47.434Z,8.74
2022-11-06T06:06:16.506Z,8.63
2022-11-06T06:08:46.625Z,8.69
2022-11-06T06:11:14.415Z,8.64
2022-11-06T06:13:42.131Z,8.61
2022-11-06T06:16:10.054Z,8.69
2022-11-06T06:18:37.828Z,8.71
2022-11-06T06:21:06.167Z,8.68
2022-11-06T06:23:35.358Z,8.69
2022-11-06T06:26:03.115Z,8.59
2022-11-06T06:28:31.436Z,8.65
2022-11-06T06:31:01.690Z,8.64
2022-11-06T06:33:29.783Z,8.73
2022-11-06T06:35:57.480Z,8.67
2022-11-06T06:38:29.982Z,8.62
2022-11-06T06:41:03.220Z,8.60
2022-11-06T06:43:31.221Z,8.58
2022-11-06T06:45:59.975Z,8.63
2022-11-06T06:48:28.586Z,8.60
2022-11-06T06:50:57.596Z,8.63
2022-11-06T06:53:25.584Z,8.67
2022-11-06T06:55:53.748Z,8.65
2022-11-06T06:58:23.201Z,8.62
2022-11-06T07:00:51.244Z,8.63
2022-11-06T07:03:19.129Z,8.67
2022-11-06T07:05:47.229Z,8.71
2022-11-06T07:08:15.209Z,8.68
2022-11-06T07:10:43.749Z,8.71
2022-11-06T07:13:12.826Z,8.74
2022-11-06T07:15:42.245Z,8.74
2022-11-06T07:18:10.080Z,8.72
2022-11-06T07:20:39.654Z,8.83
2022-11-06T07:23:08.278Z,8.91
2022-11-06T07:25:36.983Z,8.99
2022-11-06T07:28:06.450Z,8.97
2022-11-06T07:30:35.333Z,9.04
2022-11-06T07:33:05.979Z,9.01
2022-11-06T07:35:35.255Z,9.03
2022-11-06T07:38:08.749Z,8.97
2022-11-06T07:40:37.102Z,9.02
2022-11-06T07:43:06.413Z,9.10
2022-11-06T07:45:34.790Z,9.13
2022-11-06T07:48:04.299Z,9.19
2022-11-06T07:50:32.766Z,9.13
2022-11-06T07:53:02.652Z,9.00
2022-11-06T07:55:33.879Z,9.14
2022-11-06T07:58:03.202Z,9.08
2022-11-06T08:00:31.043Z,9.09
2022-11-06T08:02:58.833Z,9.02
2022-11-06T08:05:28.020Z,9.01
2022-11-06T08:07:57.701Z,9.12
2022-11-06T08:10:25.413Z,9.24
2022-11-06T08:12:53.115Z,9.35
2022-11-06T08:15:20.904Z,9.48
2022-11-06T08:17:48.581Z,9.60
2022-11-06T08:20:16.532Z,9.60
2022-11-06T08:22:45.550Z,9.66
2022-11-06T08:25:14.035Z,9.68
2022-11-06T08:27:41.702Z,9.55
2022-11-06T08:30:10.895Z,9.71
2022-11-06T08:32:38.555Z,9.68
2022-11-06T08:35:07.607Z,9.71
2022-11-06T08:37:35.357Z,9.69
2022-11-06T08:40:05.171Z,9.80
2022-11-06T08:42:32.833Z,9.80
2022-11-06T08:45:00.537Z,9.81
2022-11-06T08:47:28.556Z,9.90
2022-11-06T08:49:56.627Z,10.01
2022-11-06T08:52:24.379Z,10.02
2022-11-06T08:54:52.321Z,9.78
2022-11-06T08:57:21.475Z,9.70
2022-11-06T08:59:49.190Z,9.78
2022-11-06T09:02:17.098Z,9.76
2022-11-06T09:04:45.666Z,9.78
2022-11-06T09:07:13.467Z,9.75
2022-11-06T09:09:41.205Z,9.76
2022-11-06T09:12:09.299Z,9.81
2022-11-06T09:14:39.934Z,9.86
2022-11-06T09:17:07.749Z,9.86
2022-11-06T09:19:35.574Z,9.84
2022-11-06T09:22:03.352Z,9.88
2022-11-06T09:24:57.109Z,9.87
2022-11-06T09:27:19.052Z,9.85
2022-11-06T09:29:49.180Z,9.76
2022-11-06T09:32:16.905Z,9.81
2022-11-06T09:34:44.657Z,9.93
2022-11-06T09:37:12.379Z,10.01
2022-11-06T09:39:40.106Z,9.91
2022-11-06T09:42:23.915Z,10.01
2022-11-06T09:45:04.370Z,10.11
2022-11-06T09:47:37.288Z,10.35
2022-11-06T09:50:08.916Z,10.41
2022-11-06T09:52:43.696Z,10.42
2022-11-06T09:55:17.086Z,10.52
2022-11-06T09:57:49.404Z,10.52
2022-11-06T10:00:19.542Z,10.62
2022-11-06T10:02:51.007Z,10.75
2022-11-06T10:05:26.188Z,10.83
2022-11-06T10:07:56.847Z,10.92
2022-11-06T10:10:31.842Z,10.89
2022-11-06T10:13:17.501Z,10.92
2022-11-06T10:15:53.981Z,10.93
2022-11-06T10:18:35.210Z,11.02
2022-11-06T10:21:11.201Z,11.12
2022-11-06T10:23:46.668Z,11.16
2022-11-06T10:26:18.040Z,11.22
2022-11-06T10:29:12.535Z,11.17
2022-11-06T10:31:49.556Z,11.17
2022-11-06T10:34:21.478Z,11.23
2022-11-06T10:36:53.855Z,11.23
2022-11-06T10:39:24.622Z,11.23
2022-11-06T10:41:56.997Z,11.02
2022-11-06T10:44:28.604Z,11.04
2022-11-06T10:47:04.644Z,11.04
2022-11-06T10:49:41.247Z,10.96
2022-11-06T10:52:22.691Z,10.88
2022-11-06T10:55:04.101Z,10.88
2022-11-06T10:57:40.629Z,10.96
2022-11-06T11:00:12.203Z,10.97
2022-11-06T11:02:46.701Z,11.00
2022-11-06T11:05:17.920Z,11.01
2022-11-06T11:07:48.506Z,11.01
2022-11-06T11:10:28.271Z,11.03
2022-11-06T11:12:57.842Z,11.09
2022-11-06T11:15:28.040Z,11.07
2022-11-06T11:18:17.519Z,11.02
2022-11-06T11:20:46.940Z,10.96
2022-11-06T11:23:18.620Z,10.95
2022-11-06T11:25:48.730Z,11.04
2022-11-06T11:28:25.548Z,11.09
2022-11-06T11:30:55.705Z,11.12
2022-11-06T11:33:27.108Z,11.14
2022-11-06T11:35:55.587Z,11.20
2022-11-06T11:38:25.853Z,11.25
2022-11-06T11:41:05.942Z,11.34
2022-11-06T11:43:33.910Z,11.40
2022-11-06T11:46:19.244Z,11.52
2022-11-06T11:48:50.515Z,11.57
2022-11-06T11:51:36.848Z,11.70
2022-11-06T11:54:07.984Z,11.89
2022-11-06T11:57:03.418Z,12.06
2022-11-06T11:59:37.885Z,12.25
2022-11-06T12:02:15.569Z,12.42
2022-11-06T12:04:48.716Z,12.58
2022-11-06T12:07:25.880Z,12.65
2022-11-06T12:09:53.919Z,12.79
2022-11-06T12:12:23.951Z,12.96
2022-11-06T12:15:19.439Z,13.12
2022-11-06T12:17:53.811Z,13.25
2022-11-06T12:20:27.439Z,13.41
2022-11-06T12:22:58.102Z,13.61
2022-11-06T12:25:33.655Z,13.76
2022-11-06T12:28:03.910Z,13.80
2022-11-06T12:30:33.922Z,13.69
2022-11-06T12:33:07.083Z,13.43
2022-11-06T12:35:40.381Z,13.38
2022-11-06T12:38:20.271Z,13.50
2022-11-06T12:40:51.822Z,13.50
2022-11-06T12:43:27.032Z,13.56
2022-11-06T12:46:04.677Z,13.59
2022-11-06T12:48:47.957Z,13.53
2022-11-06T12:51:28.854Z,13.33
2022-11-06T12:54:08.825Z,13.27
2022-11-06T12:56:47.829Z,13.18
2022-11-06T12:59:31.747Z,13.19
2022-11-06T13:02:16.708Z,13.12
2022-11-06T13:04:53.608Z,13.04
2022-11-06T13:07:59.781Z,13.05
2022-11-06T13:10:37.745Z,12.97
2022-11-06T13:13:22.707Z,12.93
2022-11-06T13:15:56.072Z,12.90
2022-11-06T13:18:29.461Z,12.88
2022-11-06T13:21:01.486Z,12.85
2022-11-06T13:23:36.236Z,12.78
2022-11-06T13:26:10.550Z,12.64
2022-11-06T13:28:42.395Z,12.65
2022-11-06T13:31:14.609Z,12.66
2022-11-06T13:33:48.340Z,12.64
2022-11-06T13:36:16.937Z,12.56
2022-11-06T13:38:53.471Z,12.51
2022-11-06T13:41:24.628Z,12.47
2022-11-06T13:43:57.745Z,12.43
2022-11-06T13:46:32.998Z,12.43
2022-11-06T13:49:09.801Z,12.36
2022-11-06T13:51:47.455Z,12.35
2022-11-06T13:54:26.835Z,12.32
2022-11-06T13:57:24.855Z,12.29
2022-11-06T14:00:17.822Z,12.26
2022-11-06T14:03:30.414Z,12.20
2022-11-06T14:06:03.207Z,12.20
2022-11-06T14:08:40.643Z,12.19
2022-11-06T14:11:19.164Z,12.14
2022-11-06T14:13:59.790Z,12.13
2022-11-06T14:16:30.702Z,12.18
2022-11-06T14:19:02.792Z,12.22
2022-11-06T14:21:46.123Z,12.16
2022-11-06T14:24:33.375Z,12.15
2022-11-06T14:27:03.885Z,12.18
2022-11-06T14:29:59.341Z,12.19
2022-11-06T14:32:42.492Z,12.17
2022-11-06T14:35:50.198Z,12.15
2022-11-06T14:38:36.499Z,12.11
2022-11-06T14:41:50.100Z,12.14
2022-11-06T14:44:46.030Z,12.13
2022-11-06T14:47:28.433Z,12.12
2022-11-06T14:49:58.902Z,12.09
2022-11-06T14:52:27.262Z,12.05
2022-11-06T14:55:04.395Z,12.05
2022-11-06T14:57:42.264Z,12.02
2022-11-06T15:00:16.775Z,12.07
2022-11-06T15:02:45.297Z,12.02
2022-11-06T15:05:19.264Z,11.97
2022-11-06T15:08:06.209Z,11.96
2022-11-06T15:10:54.947Z,11.89
2022-11-06T15:13:29.960Z,11.89
2022-11-06T15:16:13.256Z,11.91
2022-11-06T15:18:45.807Z,11.89
2022-11-06T15:21:22.142Z,11.84
2022-11-06T15:23:59.023Z,11.83
2022-11-06T15:26:30.254Z,11.83
2022-11-06T15:29:12.353Z,11.82
2022-11-06T15:31:43.537Z,11.83
2022-11-06T15:34:19.951Z,11.83
2022-11-06T15:36:52.286Z,11.83
2022-11-06T15:39:25.014Z,11.81
2022-11-06T15:41:53.085Z,11.83
2022-11-06T15:44:23.083Z,11.81
2022-11-06T15:46:56.265Z,11.80
2022-11-06T15:49:23.975Z,11.78
2022-11-06T15:51:53.784Z,11.78
2022-11-06T15:54:36.485Z,11.77
2022-11-06T15:57:09.105Z,11.74
2022-11-06T15:59:36.877Z,11.69
2022-11-06T16:02:14.888Z,11.63
2022-11-06T16:04:44.249Z,11.61
2022-11-06T16:07:12.560Z,11.55
2022-11-06T16:09:43.181Z,11.53
2022-11-06T16:12:13.990Z,11.49
2022-11-06T16:14:44.104Z,11.43
2022-11-06T16:17:18.508Z,11.41
2022-11-06T16:19:48.486Z,11.33
2022-11-06T16:22:19.433Z,11.34
2022-11-06T16:24:50.785Z,11.31
2022-11-06T16:27:19.283Z,11.29
2022-11-06T16:29:49.768Z,11.26
2022-11-06T16:32:21.707Z,11.25
2022-11-06T16:34:49.677Z,11.22
2022-11-06T16:37:38.312Z,11.25
2022-11-06T16:40:22.866Z,11.27
2022-11-06T16:43:02.483Z,11.27
2022-11-06T16:45:31.124Z,11.28
2022-11-06T16:48:35.497Z,11.30
2022-11-06T16:51:08.986Z,11.31
2022-11-06T16:53:55.251Z,11.34
2022-11-06T16:56:28.935Z,11.34
2022-11-06T16:59:02.128Z,11.38
2022-11-06T17:01:39.023Z,11.38
2022-11-06T17:04:14.621Z,11.38
2022-11-06T17:06:45.415Z,11.33
2022-11-06T17:09:30.130Z,11.31
2022-11-06T17:11:59.745Z,11.33
2022-11-06T17:14:27.981Z,11.32
2022-11-06T17:16:58.059Z,11.31
2022-11-06T17:19:28.579Z,11.28
2022-11-06T17:21:56.661Z,11.30
2022-11-06T17:24:36.370Z,11.27
2022-11-06T17:27:06.046Z,11.23
2022-11-06T17:29:35.962Z,11.19
2022-11-06T17:32:04.412Z,11.15
2022-11-06T17:34:33.542Z,11.16
2022-11-06T17:37:01.382Z,11.11
2022-11-06T17:39:29.112Z,11.13
2022-11-06T17:41:56.778Z,11.11
2022-11-06T17:44:24.428Z,11.09
2022-11-06T17:46:52.117Z,11.00
2022-11-06T17:49:19.788Z,10.98
2022-11-06T17:51:53.288Z,10.88
2022-11-06T17:54:22.913Z,10.87
2022-11-06T17:56:51.415Z,10.84
2022-11-06T17:59:19.344Z,10.84
2022-11-06T18:01:50.340Z,10.84
2022-11-06T18:04:19.575Z,10.84
2022-11-06T18:06:50.850Z,10.84
2022-11-06T18:09:19.762Z,10.90
2022-11-06T18:11:50.237Z,10.96
2022-11-06T18:14:18.546Z,10.95
2022-11-06T18:16:46.445Z,10.97
2022-11-06T18:19:17.271Z,11.01
2022-11-06T18:21:45.173Z,10.97
2022-11-06T18:24:14.377Z,10.98
2022-11-06T18:26:42.213Z,11.00
2022-11-06T18:29:11.369Z,10.97
2022-11-06T18:31:39.077Z,10.92
2022-11-06T18:34:07.062Z,10.95
2022-11-06T18:36:36.649Z,10.95
2022-11-06T18:39:04.780Z,10.80
2022-11-06T18:41:34.444Z,10.85
2022-11-06T18:44:02.540Z,10.92
2022-11-06T18:46:30.754Z,10.87
2022-11-06T18:48:59.000Z,10.83
2022-11-06T18:51:35.093Z,10.79
2022-11-06T18:54:05.707Z,10.77
2022-11-06T18:56:38.708Z,10.81
2022-11-06T18:59:14.158Z,10.83
2022-11-06T19:01:41.962Z,10.86
2022-11-06T19:04:10.615Z,10.87
2022-11-06T19:06:40.082Z,10.87
2022-11-06T19:09:08.844Z,10.93
2022-11-06T19:11:38.206Z,10.90
2022-11-06T19:14:05.966Z,10.95
2022-11-06T19:16:33.700Z,10.98
2022-11-06T19:19:05.399Z,11.00
2022-11-06T19:21:34.389Z,11.06
2022-11-06T19:24:04.550Z,11.03
2022-11-06T19:26:34.616Z,11.05
2022-11-06T19:29:04.963Z,11.05
2022-11-06T19:31:33.642Z,11.00
2022-11-06T19:34:03.133Z,11.03
2022-11-06T19:36:31.857Z,10.96
2022-11-06T19:39:00.082Z,10.96
2022-11-06T19:41:32.640Z,10.91
2022-11-06T19:44:04.332Z,10.87
2022-11-06T19:46:36.068Z,10.88
2022-11-06T19:49:06.515Z,10.95
2022-11-06T19:51:37.339Z,10.87
2022-11-06T19:54:06.013Z,10.89
2022-11-06T19:56:34.687Z,10.98
2022-11-06T19:59:06.547Z,11.10
2022-11-06T20:01:34.746Z,11.17
2022-11-06T20:04:02.799Z,11.16
2022-11-06T20:06:30.667Z,11.17
2022-11-06T20:08:59.517Z,11.22
2022-11-06T20:11:27.365Z,11.13
2022-11-06T20:13:56.162Z,11.19
2022-11-06T20:16:26.593Z,11.03
2022-11-06T20:18:57.066Z,11.01
2022-11-06T20:21:27.925Z,10.98
2022-11-06T20:23:56.305Z,10.89
2022-11-06T20:26:24.888Z,10.75
2022-11-06T20:28:53.486Z,10.63
2022-11-06T20:31:23.043Z,10.62
2022-11-06T20:33:53.538Z,10.65
2022-11-06T20:36:23.629Z,10.62
2022-11-06T20:38:52.936Z,10.63
2022-11-06T20:41:20.853Z,10.50
2022-11-06T20:43:48.747Z,10.45
2022-11-06T20:46:18.468Z,10.34
2022-11-06T20:48:46.624Z,10.29
2022-11-06T20:51:17.988Z,10.22
2022-11-06T20:53:46.400Z,10.17
2022-11-06T20:56:16.014Z,10.20
2022-11-06T20:58:44.542Z,10.00
2022-11-06T21:01:17.138Z,10.03
2022-11-06T21:03:45.972Z,9.98
2022-11-06T21:06:15.740Z,10.02
2022-11-06T21:08:44.354Z,10.06
2022-11-06T21:11:16.622Z,10.08
2022-11-06T21:13:46.357Z,10.04
2022-11-06T21:16:16.633Z,10.05
2022-11-06T21:18:45.142Z,9.99
2022-11-06T21:21:16.715Z,10.03
2022-11-06T21:23:45.122Z,9.96
2022-11-06T21:26:15.441Z,9.97
2022-11-06T21:28:44.242Z,10.02
2022-11-06T21:31:13.165Z,10.00
2022-11-06T21:33:41.852Z,9.94
2022-11-06T21:36:11.936Z,9.88
2022-11-06T21:38:41.708Z,9.81
2022-11-06T21:41:13.661Z,9.89
2022-11-06T21:43:42.064Z,9.92
2022-11-06T21:46:12.420Z,9.99
2022-11-06T21:48:49.081Z,9.93
2022-11-06T21:51:20.128Z,9.98
2022-11-06T21:54:07.596Z,9.99
2022-11-06T21:56:35.932Z,9.98
2022-11-06T21:59:06.124Z,10.00
2022-11-06T22:01:34.438Z,9.99
2022-11-06T22:04:02.346Z,10.05
2022-11-06T22:06:30.994Z,10.04
2022-11-06T22:09:02.040Z,10.00
2022-11-06T22:11:31.673Z,9.97
2022-11-06T22:14:02.592Z,10.03
2022-11-06T22:16:32.515Z,10.06
2022-11-06T22:19:00.941Z,9.98
2022-11-06T22:21:30.723Z,9.96
2022-11-06T22:24:00.098Z,10.00
2022-11-06T22:26:30.052Z,10.04
2022-11-06T22:28:59.708Z,10.05
2022-11-06T22:31:28.254Z,10.05
2022-11-06T22:33:56.771Z,10.01
2022-11-06T22:36:24.773Z,10.10
2022-11-06T22:38:53.087Z,10.14
2022-11-06T22:41:24.458Z,10.22
2022-11-06T22:43:52.999Z,10.14
2022-11-06T22:46:23.544Z,10.16
2022-11-06T22:48:52.085Z,10.22
2022-11-06T22:51:22.435Z,10.24
2022-11-06T22:53:51.269Z,10.21
2022-11-06T22:56:20.026Z,10.26
2022-11-06T22:58:53.305Z,10.25
2022-11-06T23:01:22.928Z,10.27
2022-11-06T23:03:50.805Z,10.26
2022-11-06T23:06:18.687Z,10.31
2022-11-06T23:08:47.272Z,10.36
2022-11-06T23:11:17.206Z,10.29
2022-11-06T23:13:45.591Z,10.36
2022-11-06T23:16:17.929Z,10.44
2022-11-06T23:18:46.177Z,10.44
2022-11-06T23:21:17.721Z,10.41
2022-11-06T23:23:46.447Z,10.44
2022-11-06T23:26:15.480Z,10.49
2022-11-06T23:28:43.874Z,10.56
2022-11-06T23:31:14.857Z,10.46
2022-11-06T23:33:42.886Z,10.47
2022-11-06T23:36:13.287Z,10.48
2022-11-06T23:38:41.737Z,10.52
2022-11-06T23:41:25.412Z,10.57
2022-11-06T23:43:53.266Z,10.55
2022-11-06T23:46:22.375Z,10.48
2022-11-06T23:48:50.134Z,10.55
2022-11-06T23:51:19.381Z,10.55
2022-11-06T23:53:47.116Z,10.58
2022-11-06T23:56:15.237Z,10.57
2022-11-06T23:58:43.517Z,10.62
